Česky Dansk Deutsch English Español Suomi Français Magyar Italiano Nederlands norsk Polski Português svenska Türkçe

 

Het Weer

Falconara (Italië)

20:50, 1 augustus 2016 (GMT)

NWNNE
WE
SWSSE
Home            
Falconara Frontone Rimini Perugia Cervia Forli Arezzo Punta Marina Monte Terminillo Gran Sasso Mountain Range Losinj Island Rieti Pescara Radicofani Zadar / Zemunik Viterbo Firenze / Peretola Guidonia Bologna / Borgo Panigale Ferrara Vigna Di Valle Roma / Urbe Porretta Pass

Om een weerknop op uw website of weblog te plaatsen, copieer onderstaande code en plak die in uw pagina. In het eerste vakje staat HTML-code, in het tweede vakje UBB-code.


Add to Google

Details

Wind speed:2 bf, 5 kn, 2.6 m/s, 5.8 miles/h, 9.3 km/h
Wind direction:WNW, 300°
Visibility:Greater than 10000 m, 10 km, 32800 ft, 6.2 miles
Clouds:CAVOC
Temperature:22°C, 72°F
Gefühlte Temperatur:23°C, 73°F
Dew-point:18°C, 64°F
Atmospheric pressure:1015 hPa, 761.3 mmHg, 29.97 inHg, 1.002 atm
Relative humidity:78.1 %
METAR:LIPY 012050Z 30005KT CAVOK 22/18 Q1015

Snelkoppelingen

Actuele weersinformatie van de hele wereld. Voeg locaties toe met het plus (+) symbool. Deze snelkoppelingen kunnen worden toegevoegd aan Google.

Lid van de Technetium groep

website free tracking
StatCounter NetStat W3C Validator

07-10-2022 03:48:19
astro.technetium.be money.technetium.be phote.technetium.be tafeltennistafel.technetium.be www.ligfiets.net